sensor_id;sensor_type;location;lat;lon;timestamp;P1;durP1;ratioP1;P2;durP2;ratioP2
57615;SDS011;43816;52.054;-9.494;2023-03-18T00:00:10;3.80;;;3.50;;
57615;SDS011;43816;52.054;-9.494;2023-03-18T00:00:22;4.00;;;3.70;;
57615;SDS011;43816;52.054;-9.494;2023-03-18T00:00:33;4.07;;;3.67;;
57615;SDS011;43816;52.054;-9.494;2023-03-18T00:00:43;3.80;;;3.40;;
57615;SDS011;43816;52.054;-9.494;2023-03-18T00:00:57;3.80;;;3.50;;
57615;SDS011;43816;52.054;-9.494;2023-03-18T00:01:09;3.90;;;3.60;;
57615;SDS011;43816;52.054;-9.494;2023-03-18T00:01:19;3.97;;;3.60;;
57615;SDS011;43816;52.054;-9.494;2023-03-18T00:01:30;4.10;;;3.70;;
57615;SDS011;43816;52.054;-9.494;2023-03-18T00:01:40;4.00;;;3.60;;
57615;SDS011;43816;52.054;-9.494;2023-03-18T00:01:50;3.80;;;3.50;;
57615;SDS011;43816;52.054;-9.494;2023-03-18T00:02:04;3.88;;;3.50;;
57615;SDS011;43816;52.054;-9.494;2023-03-18T00:02:15;4.00;;;3.60;;
57615;SDS011;43816;52.054;-9.494;2023-03-18T00:02:25;3.80;;;3.50;;
57615;SDS011;43816;52.054;-9.494;2023-03-18T00:02:36;3.63;;;3.38;;
57615;SDS011;43816;52.054;-9.494;2023-03-18T00:02:47;3.78;;;3.47;;
57615;SDS011;43816;52.054;-9.494;2023-03-18T00:02:58;4.00;;;3.70;;
57615;SDS011;43816;52.054;-9.494;2023-03-18T00:03:09;4.10;;;3.80;;
57615;SDS011;43816;52.054;-9.494;2023-03-18T00:03:23;4.03;;;3.72;;
57615;SDS011;43816;52.054;-9.494;2023-03-18T00:03:34;4.05;;;3.65;;
57615;SDS011;43816;52.054;-9.494;2023-03-18T00:03:46;3.97;;;3.55;;
57615;SDS011;43816;52.054;-9.494;2023-03-18T00:03:57;4.00;;;3.60;;
57615;SDS011;43816;52.054;-9.494;2023-03-18T00:04:07;3.90;;;3.60;;
57615;SDS011;43816;52.054;-9.494;2023-03-18T00:04:18;3.83;;;3.53;;
57615;SDS011;43816;52.054;-9.494;2023-03-18T00:04:31;4.07;;;3.73;;
57615;SDS011;43816;52.054;-9.494;2023-03-18T00:04:43;4.20;;;3.80;;
57615;SDS011;43816;52.054;-9.494;2023-03-18T00:04:54;4.40;;;4.00;;
57615;SDS011;43816;52.054;-9.494;2023-03-18T00:05:06;4.40;;;4.00;;
57615;SDS011;43816;52.054;-9.494;2023-03-18T00:05:17;4.40;;;4.00;;
57615;SDS011;43816;52.054;-9.494;2023-03-18T00:05:28;4.13;;;3.83;;
57615;SDS011;43816;52.054;-9.494;2023-03-18T00:05:38;4.00;;;3.70;;
57615;SDS011;43816;52.054;-9.494;2023-03-18T00:05:49;4.00;;;3.70;;
57615;SDS011;43816;52.054;-9.494;2023-03-18T00:06:03;4.10;;;3.80;;
57615;SDS011;43816;52.054;-9.494;2023-03-18T00:06:21;4.10;;;3.80;;
57615;SDS011;43816;52.054;-9.494;2023-03-18T00:06:31;4.20;;;3.80;;
57615;SDS011;43816;52.054;-9.494;2023-03-18T00:06:41;4.03;;;3.72;;
57615;SDS011;43816;52.054;-9.494;2023-03-18T00:06:52;4.10;;;3.70;;
57615;SDS011;43816;52.054;-9.494;2023-03-18T00:07:03;3.97;;;3.60;;
57615;SDS011;43816;52.054;-9.494;2023-03-18T00:07:13;4.10;;;3.70;;
57615;SDS011;43816;52.054;-9.494;2023-03-18T00:07:24;3.97;;;3.67;;
57615;SDS011;43816;52.054;-9.494;2023-03-18T00:07:34;4.00;;;3.70;;
57615;SDS011;43816;52.054;-9.494;2023-03-18T00:07:45;3.87;;;3.57;;
57615;SDS011;43816;52.054;-9.494;2023-03-18T00:07:55;4.00;;;3.70;;
57615;SDS011;43816;52.054;-9.494;2023-03-18T00:08:06;4.00;;;3.70;;
57615;SDS011;43816;52.054;-9.494;2023-03-18T00:08:16;4.20;;;3.80;;
57615;SDS011;43816;52.054;-9.494;2023-03-18T00:08:27;4.00;;;3.70;;
57615;SDS011;43816;52.054;-9.494;2023-03-18T00:08:37;4.00;;;3.70;;
57615;SDS011;43816;52.054;-9.494;2023-03-18T00:08:49;4.25;;;3.85;;
57615;SDS011;43816;52.054;-9.494;2023-03-18T00:08:59;4.40;;;4.00;;
57615;SDS011;43816;52.054;-9.494;2023-03-18T00:09:10;4.35;;;3.95;;
57615;SDS011;43816;52.054;-9.494;2023-03-18T00:09:20;3.90;;;3.60;;
57615;SDS011;43816;52.054;-9.494;2023-03-18T00:09:31;3.90;;;3.60;;
57615;SDS011;43816;52.054;-9.494;2023-03-18T00:09:41;3.90;;;3.60;;
57615;SDS011;43816;52.054;-9.494;2023-03-18T00:10:00;3.97;;;3.67;;
57615;SDS011;43816;52.054;-9.494;2023-03-18T00:10:10;3.85;;;3.55;;
57615;SDS011;43816;52.054;-9.494;2023-03-18T00:10:27;3.70;;;3.40;;
57615;SDS011;43816;52.054;-9.494;2023-03-18T00:10:41;4.10;;;3.70;;
57615;SDS011;43816;52.054;-9.494;2023-03-18T00:10:54;4.30;;;3.90;;
57615;SDS011;43816;52.054;-9.494;2023-03-18T00:11:08;4.13;;;3.75;;
57615;SDS011;43816;52.054;-9.494;2023-03-18T00:11:20;4.03;;;3.72;;
57615;SDS011;43816;52.054;-9.494;2023-03-18T00:11:30;3.88;;;3.58;;
57615;SDS011;43816;52.054;-9.494;2023-03-18T00:11:40;3.90;;;3.60;;
57615;SDS011;43816;52.054;-9.494;2023-03-18T00:11:51;4.00;;;3.70;;
57615;SDS011;43816;52.054;-9.494;2023-03-18T00:12:02;4.03;;;3.72;;
57615;SDS011;43816;52.054;-9.494;2023-03-18T00:12:13;4.00;;;3.70;;
57615;SDS011;43816;52.054;-9.494;2023-03-18T00:12:24;3.97;;;3.67;;
57615;SDS011;43816;52.054;-9.494;2023-03-18T00:12:35;3.80;;;3.50;;
57615;SDS011;43816;52.054;-9.494;2023-03-18T00:12:46;3.88;;;3.55;;
57615;SDS011;43816;52.054;-9.494;2023-03-18T00:12:56;3.95;;;3.55;;
57615;SDS011;43816;52.054;-9.494;2023-03-18T00:13:07;4.23;;;3.83;;
57615;SDS011;43816;52.054;-9.494;2023-03-18T00:13:17;4.30;;;3.90;;
57615;SDS011;43816;52.054;-9.494;2023-03-18T00:13:27;4.30;;;3.90;;
57615;SDS011;43816;52.054;-9.494;2023-03-18T00:13:38;4.10;;;3.73;;
57615;SDS011;43816;52.054;-9.494;2023-03-18T00:13:49;4.05;;;3.75;;
57615;SDS011;43816;52.054;-9.494;2023-03-18T00:13:59;3.90;;;3.60;;
57615;SDS011;43816;52.054;-9.494;2023-03-18T00:14:10;4.20;;;3.80;;
57615;SDS011;43816;52.054;-9.494;2023-03-18T00:14:20;4.13;;;3.80;;
57615;SDS011;43816;52.054;-9.494;2023-03-18T00:14:31;4.40;;;4.00;;
57615;SDS011;43816;52.054;-9.494;2023-03-18T00:14:43;4.25;;;3.85;;
57615;SDS011;43816;52.054;-9.494;2023-03-18T00:14:53;4.10;;;3.70;;
57615;SDS011;43816;52.054;-9.494;2023-03-18T00:15:05;3.93;;;3.63;;
57615;SDS011;43816;52.054;-9.494;2023-03-18T00:15:17;4.00;;;3.70;;
57615;SDS011;43816;52.054;-9.494;2023-03-18T00:15:27;3.83;;;3.53;;
57615;SDS011;43816;52.054;-9.494;2023-03-18T00:15:37;3.80;;;3.50;;
57615;SDS011;43816;52.054;-9.494;2023-03-18T00:15:49;3.80;;;3.50;;
57615;SDS011;43816;52.054;-9.494;2023-03-18T00:16:01;3.92;;;3.53;;
57615;SDS011;43816;52.054;-9.494;2023-03-18T00:16:15;3.70;;;3.40;;
57615;SDS011;43816;52.054;-9.494;2023-03-18T00:16:25;3.70;;;3.40;;
57615;SDS011;43816;52.054;-9.494;2023-03-18T00:16:36;3.80;;;3.50;;
57615;SDS011;43816;52.054;-9.494;2023-03-18T00:16:46;3.73;;;3.43;;
57615;SDS011;43816;52.054;-9.494;2023-03-18T00:16:57;3.70;;;3.40;;
57615;SDS011;43816;52.054;-9.494;2023-03-18T00:17:07;3.57;;;3.27;;
57615;SDS011;43816;52.054;-9.494;2023-03-18T00:17:17;3.63;;;3.33;;
57615;SDS011;43816;52.054;-9.494;2023-03-18T00:17:31;3.90;;;3.60;;
57615;SDS011;43816;52.054;-9.494;2023-03-18T00:17:41;4.00;;;3.70;;
57615;SDS011;43816;52.054;-9.494;2023-03-18T00:17:51;4.25;;;3.88;;
57615;SDS011;43816;52.054;-9.494;2023-03-18T00:18:02;4.10;;;3.70;;
57615;SDS011;43816;52.054;-9.494;2023-03-18T00:18:14;3.95;;;3.60;;
57615;SDS011;43816;52.054;-9.494;2023-03-18T00:18:25;3.80;;;3.50;;
57615;SDS011;43816;52.054;-9.494;2023-03-18T00:18:36;3.75;;;3.45;;
57615;SDS011;43816;52.054;-9.494;2023-03-18T00:18:47;4.00;;;3.60;;
57615;SDS011;43816;52.054;-9.494;2023-03-18T00:18:57;4.22;;;3.80;;
57615;SDS011;43816;52.054;-9.494;2023-03-18T00:19:11;4.20;;;3.80;;
57615;SDS011;43816;52.054;-9.494;2023-03-18T00:19:21;3.92;;;3.63;;
57615;SDS011;43816;52.054;-9.494;2023-03-18T00:19:32;4.10;;;3.78;;
57615;SDS011;43816;52.054;-9.494;2023-03-18T00:19:45;4.30;;;3.90;;
57615;SDS011;43816;52.054;-9.494;2023-03-18T00:19:55;4.28;;;3.88;;
57615;SDS011;43816;52.054;-9.494;2023-03-18T00:20:06;4.00;;;3.60;;
57615;SDS011;43816;52.054;-9.494;2023-03-18T00:20:17;3.70;;;3.40;;
57615;SDS011;43816;52.054;-9.494;2023-03-18T00:20:28;3.83;;;3.53;;
57615;SDS011;43816;52.054;-9.494;2023-03-18T00:20:38;4.00;;;3.70;;
57615;SDS011;43816;52.054;-9.494;2023-03-18T00:20:48;4.00;;;3.70;;
57615;SDS011;43816;52.054;-9.494;2023-03-18T00:20:59;3.83;;;3.53;;
57615;SDS011;43816;52.054;-9.494;2023-03-18T00:21:09;3.80;;;3.50;;
57615;SDS011;43816;52.054;-9.494;2023-03-18T00:21:20;3.80;;;3.50;;
57615;SDS011;43816;52.054;-9.494;2023-03-18T00:21:30;3.72;;;3.42;;
57615;SDS011;43816;52.054;-9.494;2023-03-18T00:21:41;3.63;;;3.33;;
57615;SDS011;43816;52.054;-9.494;2023-03-18T00:21:51;3.60;;;3.30;;
57615;SDS011;43816;52.054;-9.494;2023-03-18T00:22:01;3.70;;;3.40;;
57615;SDS011;43816;52.054;-9.494;2023-03-18T00:22:11;3.73;;;3.43;;
57615;SDS011;43816;52.054;-9.494;2023-03-18T00:22:22;3.80;;;3.50;;
57615;SDS011;43816;52.054;-9.494;2023-03-18T00:22:36;3.80;;;3.50;;
57615;SDS011;43816;52.054;-9.494;2023-03-18T00:22:55;3.65;;;3.35;;
57615;SDS011;43816;52.054;-9.494;2023-03-18T00:23:06;3.75;;;3.45;;
57615;SDS011;43816;52.054;-9.494;2023-03-18T00:23:19;3.85;;;3.55;;
57615;SDS011;43816;52.054;-9.494;2023-03-18T00:23:30;3.80;;;3.50;;
57615;SDS011;43816;52.054;-9.494;2023-03-18T00:23:49;3.65;;;3.35;;
57615;SDS011;43816;52.054;-9.494;2023-03-18T00:24:06;3.73;;;3.43;;
57615;SDS011;43816;52.054;-9.494;2023-03-18T00:24:16;3.92;;;3.55;;
57615;SDS011;43816;52.054;-9.494;2023-03-18T00:24:30;3.80;;;3.50;;
57615;SDS011;43816;52.054;-9.494;2023-03-18T00:24:40;3.80;;;3.50;;
57615;SDS011;43816;52.054;-9.494;2023-03-18T00:24:50;3.80;;;3.50;;
57615;SDS011;43816;52.054;-9.494;2023-03-18T00:25:03;3.78;;;3.47;;
57615;SDS011;43816;52.054;-9.494;2023-03-18T00:25:16;3.90;;;3.60;;
57615;SDS011;43816;52.054;-9.494;2023-03-18T00:25:27;4.10;;;3.73;;
57615;SDS011;43816;52.054;-9.494;2023-03-18T00:25:37;4.10;;;3.70;;
57615;SDS011;43816;52.054;-9.494;2023-03-18T00:25:50;4.05;;;3.75;;
57615;SDS011;43816;52.054;-9.494;2023-03-18T00:26:01;4.03;;;3.72;;
57615;SDS011;43816;52.054;-9.494;2023-03-18T00:26:12;3.93;;;3.63;;
57615;SDS011;43816;52.054;-9.494;2023-03-18T00:26:26;3.85;;;3.55;;
57615;SDS011;43816;52.054;-9.494;2023-03-18T00:26:37;3.75;;;3.45;;
57615;SDS011;43816;52.054;-9.494;2023-03-18T00:26:47;3.75;;;3.45;;
57615;SDS011;43816;52.054;-9.494;2023-03-18T00:26:58;3.73;;;3.43;;
57615;SDS011;43816;52.054;-9.494;2023-03-18T00:27:08;3.80;;;3.50;;
57615;SDS011;43816;52.054;-9.494;2023-03-18T00:27:18;3.80;;;3.40;;
57615;SDS011;43816;52.054;-9.494;2023-03-18T00:27:29;3.90;;;3.50;;
57615;SDS011;43816;52.054;-9.494;2023-03-18T00:27:40;3.67;;;3.38;;
57615;SDS011;43816;52.054;-9.494;2023-03-18T00:27:50;3.60;;;3.30;;
57615;SDS011;43816;52.054;-9.494;2023-03-18T00:28:01;3.50;;;3.20;;
57615;SDS011;43816;52.054;-9.494;2023-03-18T00:28:13;3.60;;;3.30;;
57615;SDS011;43816;52.054;-9.494;2023-03-18T00:28:23;3.72;;;3.42;;
57615;SDS011;43816;52.054;-9.494;2023-03-18T00:28:34;3.95;;;3.58;;
57615;SDS011;43816;52.054;-9.494;2023-03-18T00:28:45;3.88;;;3.58;;
57615;SDS011;43816;52.054;-9.494;2023-03-18T00:28:56;3.80;;;3.50;;
57615;SDS011;43816;52.054;-9.494;2023-03-18T00:29:07;3.80;;;3.50;;
57615;SDS011;43816;52.054;-9.494;2023-03-18T00:29:18;3.80;;;3.50;;
57615;SDS011;43816;52.054;-9.494;2023-03-18T00:29:28;3.53;;;3.23;;
57615;SDS011;43816;52.054;-9.494;2023-03-18T00:29:39;3.53;;;3.22;;
57615;SDS011;43816;52.054;-9.494;2023-03-18T00:29:49;3.60;;;3.27;;
57615;SDS011;43816;52.054;-9.494;2023-03-18T00:30:00;3.70;;;3.30;;
57615;SDS011;43816;52.054;-9.494;2023-03-18T00:30:10;3.80;;;3.40;;
57615;SDS011;43816;52.054;-9.494;2023-03-18T00:30:21;3.80;;;3.50;;
57615;SDS011;43816;52.054;-9.494;2023-03-18T00:30:31;3.70;;;3.40;;
57615;SDS011;43816;52.054;-9.494;2023-03-18T00:30:43;3.60;;;3.30;;
57615;SDS011;43816;52.054;-9.494;2023-03-18T00:30:54;3.70;;;3.40;;
57615;SDS011;43816;52.054;-9.494;2023-03-18T00:31:06;3.85;;;3.55;;
57615;SDS011;43816;52.054;-9.494;2023-03-18T00:31:18;3.65;;;3.33;;
57615;SDS011;43816;52.054;-9.494;2023-03-18T00:31:29;3.75;;;3.40;;
57615;SDS011;43816;52.054;-9.494;2023-03-18T00:31:39;3.70;;;3.40;;
57615;SDS011;43816;52.054;-9.494;2023-03-18T00:31:50;3.80;;;3.50;;
57615;SDS011;43816;52.054;-9.494;2023-03-18T00:32:00;3.92;;;3.63;;
57615;SDS011;43816;52.054;-9.494;2023-03-18T00:32:11;3.83;;;3.53;;
57615;SDS011;43816;52.054;-9.494;2023-03-18T00:32:21;3.90;;;3.60;;
57615;SDS011;43816;52.054;-9.494;2023-03-18T00:32:32;3.63;;;3.33;;
57615;SDS011;43816;52.054;-9.494;2023-03-18T00:32:42;3.42;;;3.13;;
57615;SDS011;43816;52.054;-9.494;2023-03-18T00:32:54;3.30;;;3.10;;
57615;SDS011;43816;52.054;-9.494;2023-03-18T00:33:05;3.60;;;3.30;;
57615;SDS011;43816;52.054;-9.494;2023-03-18T00:33:15;3.55;;;3.25;;
57615;SDS011;43816;52.054;-9.494;2023-03-18T00:33:26;3.47;;;3.17;;
57615;SDS011;43816;52.054;-9.494;2023-03-18T00:33:37;3.50;;;3.20;;
57615;SDS011;43816;52.054;-9.494;2023-03-18T00:33:49;3.80;;;3.30;;
57615;SDS011;43816;52.054;-9.494;2023-03-18T00:34:00;3.83;;;3.22;;
57615;SDS011;43816;52.054;-9.494;2023-03-18T00:34:11;3.53;;;3.23;;
57615;SDS011;43816;52.054;-9.494;2023-03-18T00:34:21;3.50;;;3.20;;
57615;SDS011;43816;52.054;-9.494;2023-03-18T00:34:31;3.60;;;3.30;;
57615;SDS011;43816;52.054;-9.494;2023-03-18T00:34:42;3.50;;;3.20;;
57615;SDS011;43816;52.054;-9.494;2023-03-18T00:34:52;3.58;;;3.28;;
57615;SDS011;43816;52.054;-9.494;2023-03-18T00:35:04;3.78;;;3.40;;
57615;SDS011;43816;52.054;-9.494;2023-03-18T00:35:14;3.70;;;3.30;;
57615;SDS011;43816;52.054;-9.494;2023-03-18T00:35:25;3.58;;;3.28;;
57615;SDS011;43816;52.054;-9.494;2023-03-18T00:35:36;3.40;;;3.10;;
57615;SDS011;43816;52.054;-9.494;2023-03-18T00:35:46;3.45;;;3.15;;
57615;SDS011;43816;52.054;-9.494;2023-03-18T00:35:56;3.57;;;3.27;;
57615;SDS011;43816;52.054;-9.494;2023-03-18T00:36:07;3.67;;;3.37;;
57615;SDS011;43816;52.054;-9.494;2023-03-18T00:36:17;3.63;;;3.33;;
57615;SDS011;43816;52.054;-9.494;2023-03-18T00:36:28;3.45;;;3.20;;
57615;SDS011;43816;52.054;-9.494;2023-03-18T00:36:38;3.33;;;3.10;;
57615;SDS011;43816;52.054;-9.494;2023-03-18T00:36:48;3.60;;;3.30;;
57615;SDS011;43816;52.054;-9.494;2023-03-18T00:36:59;3.72;;;3.42;;
57615;SDS011;43816;52.054;-9.494;2023-03-18T00:37:09;3.80;;;3.50;;
57615;SDS011;43816;52.054;-9.494;2023-03-18T00:37:20;3.50;;;3.20;;
57615;SDS011;43816;52.054;-9.494;2023-03-18T00:37:30;3.50;;;3.20;;
57615;SDS011;43816;52.054;-9.494;2023-03-18T00:37:41;3.40;;;3.10;;
57615;SDS011;43816;52.054;-9.494;2023-03-18T00:37:51;3.40;;;3.10;;
57615;SDS011;43816;52.054;-9.494;2023-03-18T00:38:01;3.40;;;3.10;;
57615;SDS011;43816;52.054;-9.494;2023-03-18T00:38:13;3.58;;;3.28;;
57615;SDS011;43816;52.054;-9.494;2023-03-18T00:38:24;3.63;;;3.33;;
57615;SDS011;43816;52.054;-9.494;2023-03-18T00:38:34;3.80;;;3.50;;
57615;SDS011;43816;52.054;-9.494;2023-03-18T00:38:45;3.70;;;3.40;;
57615;SDS011;43816;52.054;-9.494;2023-03-18T00:38:56;3.60;;;3.30;;
57615;SDS011;43816;52.054;-9.494;2023-03-18T00:39:07;3.38;;;3.08;;
57615;SDS011;43816;52.054;-9.494;2023-03-18T00:39:17;3.20;;;3.00;;
57615;SDS011;43816;52.054;-9.494;2023-03-18T00:39:27;3.15;;;2.95;;
57615;SDS011;43816;52.054;-9.494;2023-03-18T00:39:38;3.30;;;3.00;;
57615;SDS011;43816;52.054;-9.494;2023-03-18T00:39:48;3.37;;;3.07;;
57615;SDS011;43816;52.054;-9.494;2023-03-18T00:40:04;3.40;;;3.10;;
57615;SDS011;43816;52.054;-9.494;2023-03-18T00:40:16;3.10;;;2.90;;
57615;SDS011;43816;52.054;-9.494;2023-03-18T00:40:27;3.03;;;2.83;;
57615;SDS011;43816;52.054;-9.494;2023-03-18T00:40:37;3.15;;;2.92;;
57615;SDS011;43816;52.054;-9.494;2023-03-18T00:40:47;3.10;;;2.90;;
57615;SDS011;43816;52.054;-9.494;2023-03-18T00:40:59;3.40;;;3.10;;
57615;SDS011;43816;52.054;-9.494;2023-03-18T00:41:09;3.22;;;3.03;;
57615;SDS011;43816;52.054;-9.494;2023-03-18T00:41:19;3.50;;;3.20;;
57615;SDS011;43816;52.054;-9.494;2023-03-18T00:41:30;3.47;;;3.17;;
57615;SDS011;43816;52.054;-9.494;2023-03-18T00:41:41;3.55;;;3.25;;
57615;SDS011;43816;52.054;-9.494;2023-03-18T00:41:54;3.47;;;3.20;;
57615;SDS011;43816;52.054;-9.494;2023-03-18T00:42:06;3.40;;;3.20;;
57615;SDS011;43816;52.054;-9.494;2023-03-18T00:43:05;3.45;;;3.15;;
57615;SDS011;43816;52.054;-9.494;2023-03-18T00:43:16;3.40;;;3.10;;
57615;SDS011;43816;52.054;-9.494;2023-03-18T00:43:26;3.33;;;3.03;;
57615;SDS011;43816;52.054;-9.494;2023-03-18T00:43:40;3.38;;;3.08;;
57615;SDS011;43816;52.054;-9.494;2023-03-18T00:43:53;3.15;;;2.85;;
57615;SDS011;43816;52.054;-9.494;2023-03-18T00:44:04;3.20;;;2.90;;
57615;SDS011;43816;52.054;-9.494;2023-03-18T00:44:14;3.20;;;3.00;;
57615;SDS011;43816;52.054;-9.494;2023-03-18T00:44:24;3.30;;;3.10;;
57615;SDS011;43816;52.054;-9.494;2023-03-18T00:44:35;3.40;;;3.10;;
57615;SDS011;43816;52.054;-9.494;2023-03-18T00:44:45;3.30;;;3.00;;
57615;SDS011;43816;52.054;-9.494;2023-03-18T00:44:55;3.20;;;2.90;;
57615;SDS011;43816;52.054;-9.494;2023-03-18T00:45:06;3.13;;;2.93;;
57615;SDS011;43816;52.054;-9.494;2023-03-18T00:45:18;3.03;;;2.83;;
57615;SDS011;43816;52.054;-9.494;2023-03-18T00:45:28;3.13;;;2.90;;
57615;SDS011;43816;52.054;-9.494;2023-03-18T00:45:39;2.97;;;2.78;;
57615;SDS011;43816;52.054;-9.494;2023-03-18T00:45:50;3.00;;;2.80;;
57615;SDS011;43816;52.054;-9.494;2023-03-18T00:46:00;2.90;;;2.70;;
57615;SDS011;43816;52.054;-9.494;2023-03-18T00:46:14;3.00;;;2.80;;
57615;SDS011;43816;52.054;-9.494;2023-03-18T00:46:28;2.97;;;2.78;;
57615;SDS011;43816;52.054;-9.494;2023-03-18T00:46:39;3.00;;;2.78;;
57615;SDS011;43816;52.054;-9.494;2023-03-18T00:46:50;3.10;;;2.80;;
57615;SDS011;43816;52.054;-9.494;2023-03-18T00:47:00;3.10;;;2.80;;
57615;SDS011;43816;52.054;-9.494;2023-03-18T00:47:10;3.10;;;2.80;;
57615;SDS011;43816;52.054;-9.494;2023-03-18T00:47:21;3.10;;;2.80;;
57615;SDS011;43816;52.054;-9.494;2023-03-18T00:47:31;3.00;;;2.80;;
57615;SDS011;43816;52.054;-9.494;2023-03-18T00:47:42;2.90;;;2.70;;
57615;SDS011;43816;52.054;-9.494;2023-03-18T00:47:53;2.90;;;2.70;;
57615;SDS011;43816;52.054;-9.494;2023-03-18T00:48:03;3.00;;;2.80;;
57615;SDS011;43816;52.054;-9.494;2023-03-18T00:48:14;3.13;;;2.90;;
57615;SDS011;43816;52.054;-9.494;2023-03-18T00:48:24;3.17;;;2.88;;
57615;SDS011;43816;52.054;-9.494;2023-03-18T00:48:35;3.10;;;2.80;;
57615;SDS011;43816;52.054;-9.494;2023-03-18T00:48:45;3.00;;;2.80;;
57615;SDS011;43816;52.054;-9.494;2023-03-18T00:48:57;2.97;;;2.78;;
57615;SDS011;43816;52.054;-9.494;2023-03-18T00:49:10;3.17;;;2.97;;
57615;SDS011;43816;52.054;-9.494;2023-03-18T00:49:20;3.10;;;2.90;;
57615;SDS011;43816;52.054;-9.494;2023-03-18T00:49:31;3.30;;;3.00;;
57615;SDS011;43816;52.054;-9.494;2023-03-18T00:49:41;3.20;;;2.90;;
57615;SDS011;43816;52.054;-9.494;2023-03-18T00:49:51;3.07;;;2.87;;
57615;SDS011;43816;52.054;-9.494;2023-03-18T00:50:02;2.80;;;2.60;;
57615;SDS011;43816;52.054;-9.494;2023-03-18T00:50:12;2.80;;;2.60;;
57615;SDS011;43816;52.054;-9.494;2023-03-18T00:50:22;2.90;;;2.70;;
57615;SDS011;43816;52.054;-9.494;2023-03-18T00:50:33;3.25;;;3.00;;
57615;SDS011;43816;52.054;-9.494;2023-03-18T00:50:44;3.33;;;3.03;;
57615;SDS011;43816;52.054;-9.494;2023-03-18T00:50:54;3.30;;;3.00;;
57615;SDS011;43816;52.054;-9.494;2023-03-18T00:51:05;3.17;;;2.88;;
57615;SDS011;43816;52.054;-9.494;2023-03-18T00:51:16;3.20;;;2.90;;
57615;SDS011;43816;52.054;-9.494;2023-03-18T00:51:28;3.20;;;2.90;;
57615;SDS011;43816;52.054;-9.494;2023-03-18T00:51:39;3.22;;;3.00;;
57615;SDS011;43816;52.054;-9.494;2023-03-18T00:51:49;3.08;;;2.83;;
57615;SDS011;43816;52.054;-9.494;2023-03-18T00:52:00;3.03;;;2.80;;
57615;SDS011;43816;52.054;-9.494;2023-03-18T00:52:10;3.10;;;2.80;;
57615;SDS011;43816;52.054;-9.494;2023-03-18T00:52:20;3.20;;;2.90;;
57615;SDS011;43816;52.054;-9.494;2023-03-18T00:52:31;3.00;;;2.77;;
57615;SDS011;43816;52.054;-9.494;2023-03-18T00:52:41;2.95;;;2.75;;
57615;SDS011;43816;52.054;-9.494;2023-03-18T00:52:52;2.93;;;2.73;;
57615;SDS011;43816;52.054;-9.494;2023-03-18T00:53:02;2.80;;;2.60;;
57615;SDS011;43816;52.054;-9.494;2023-03-18T00:53:13;2.90;;;2.70;;
57615;SDS011;43816;52.054;-9.494;2023-03-18T00:53:23;2.80;;;2.60;;
57615;SDS011;43816;52.054;-9.494;2023-03-18T00:53:33;2.67;;;2.47;;
57615;SDS011;43816;52.054;-9.494;2023-03-18T00:53:44;2.70;;;2.50;;
57615;SDS011;43816;52.054;-9.494;2023-03-18T00:53:59;2.97;;;2.70;;
57615;SDS011;43816;52.054;-9.494;2023-03-18T00:54:11;3.03;;;2.83;;
57615;SDS011;43816;52.054;-9.494;2023-03-18T00:54:22;2.97;;;2.78;;
57615;SDS011;43816;52.054;-9.494;2023-03-18T00:54:32;2.97;;;2.77;;
57615;SDS011;43816;52.054;-9.494;2023-03-18T00:54:43;3.08;;;2.88;;
57615;SDS011;43816;52.054;-9.494;2023-03-18T00:54:53;3.10;;;2.90;;
57615;SDS011;43816;52.054;-9.494;2023-03-18T00:55:04;3.10;;;2.90;;
57615;SDS011;43816;52.054;-9.494;2023-03-18T00:55:15;3.00;;;2.80;;
57615;SDS011;43816;52.054;-9.494;2023-03-18T00:55:25;2.93;;;2.73;;
57615;SDS011;43816;52.054;-9.494;2023-03-18T00:55:36;2.90;;;2.70;;
57615;SDS011;43816;52.054;-9.494;2023-03-18T00:55:46;2.93;;;2.73;;
57615;SDS011;43816;52.054;-9.494;2023-03-18T00:55:56;2.97;;;2.77;;
57615;SDS011;43816;52.054;-9.494;2023-03-18T00:56:07;2.80;;;2.60;;
57615;SDS011;43816;52.054;-9.494;2023-03-18T00:56:18;3.00;;;2.70;;
57615;SDS011;43816;52.054;-9.494;2023-03-18T00:56:30;3.35;;;2.72;;
57615;SDS011;43816;52.054;-9.494;2023-03-18T00:56:41;3.08;;;2.70;;
57615;SDS011;43816;52.054;-9.494;2023-03-18T00:56:51;3.00;;;2.70;;
57615;SDS011;43816;52.054;-9.494;2023-03-18T00:57:01;2.90;;;2.70;;
57615;SDS011;43816;52.054;-9.494;2023-03-18T00:57:12;2.85;;;2.65;;
57615;SDS011;43816;52.054;-9.494;2023-03-18T00:57:22;2.80;;;2.60;;
57615;SDS011;43816;52.054;-9.494;2023-03-18T00:57:32;2.90;;;2.70;;
57615;SDS011;43816;52.054;-9.494;2023-03-18T00:57:43;2.92;;;2.72;;
57615;SDS011;43816;52.054;-9.494;2023-03-18T00:57:53;3.17;;;2.88;;
57615;SDS011;43816;52.054;-9.494;2023-03-18T00:58:04;3.17;;;2.87;;
57615;SDS011;43816;52.054;-9.494;2023-03-18T00:58:14;3.20;;;2.90;;
57615;SDS011;43816;52.054;-9.494;2023-03-18T00:58:24;2.92;;;2.72;;
57615;SDS011;43816;52.054;-9.494;2023-03-18T00:58:35;2.87;;;2.67;;
57615;SDS011;43816;52.054;-9.494;2023-03-18T00:58:45;3.00;;;2.80;;
57615;SDS011;43816;52.054;-9.494;2023-03-18T00:58:56;2.97;;;2.78;;
57615;SDS011;43816;52.054;-9.494;2023-03-18T00:59:07;3.10;;;2.90;;
57615;SDS011;43816;52.054;-9.494;2023-03-18T00:59:18;3.10;;;2.83;;
57615;SDS011;43816;52.054;-9.494;2023-03-18T00:59:28;3.10;;;2.80;;
57615;SDS011;43816;52.054;-9.494;2023-03-18T00:59:38;2.83;;;2.63;;
57615;SDS011;43816;52.054;-9.494;2023-03-18T00:59:49;2.80;;;2.60;;
57615;SDS011;43816;52.054;-9.494;2023-03-18T00:59:59;2.70;;;2.50;;
57615;SDS011;43816;52.054;-9.494;2023-03-18T01:00:09;2.83;;;2.63;;
57615;SDS011;43816;52.054;-9.494;2023-03-18T01:00:20;2.90;;;2.70;;
57615;SDS011;43816;52.054;-9.494;2023-03-18T01:00:31;2.92;;;2.70;;
57615;SDS011;43816;52.054;-9.494;2023-03-18T01:00:41;2.73;;;2.50;;
57615;SDS011;43816;52.054;-9.494;2023-03-18T01:00:51;2.63;;;2.43;;
57615;SDS011;43816;52.054;-9.494;2023-03-18T01:01:05;2.77;;;2.50;;
57615;SDS011;43816;52.054;-9.494;2023-03-18T01:01:16;2.80;;;2.60;;
57615;SDS011;43816;52.054;-9.494;2023-03-18T01:01:28;2.80;;;2.60;;
57615;SDS011;43816;52.054;-9.494;2023-03-18T01:01:38;2.53;;;2.33;;
57615;SDS011;43816;52.054;-9.494;2023-03-18T01:01:49;2.38;;;2.28;;
57615;SDS011;43816;52.054;-9.494;2023-03-18T01:01:59;2.53;;;2.33;;
57615;SDS011;43816;52.054;-9.494;2023-03-18T01:02:09;2.63;;;2.43;;
57615;SDS011;43816;52.054;-9.494;2023-03-18T01:02:20;2.67;;;2.47;;
57615;SDS011;43816;52.054;-9.494;2023-03-18T01:02:30;2.77;;;2.47;;
57615;SDS011;43816;52.054;-9.494;2023-03-18T01:02:40;2.87;;;2.60;;
57615;SDS011;43816;52.054;-9.494;2023-03-18T01:02:51;2.80;;;2.60;;
57615;SDS011;43816;52.054;-9.494;2023-03-18T01:03:02;2.80;;;2.60;;
57615;SDS011;43816;52.054;-9.494;2023-03-18T01:03:13;2.70;;;2.50;;
57615;SDS011;43816;52.054;-9.494;2023-03-18T01:03:23;2.70;;;2.50;;
57615;SDS011;43816;52.054;-9.494;2023-03-18T01:03:33;2.60;;;2.40;;
57615;SDS011;43816;52.054;-9.494;2023-03-18T01:03:44;2.60;;;2.40;;
57615;SDS011;43816;52.054;-9.494;2023-03-18T01:03:56;2.70;;;2.50;;
57615;SDS011;43816;52.054;-9.494;2023-03-18T01:04:07;2.78;;;2.58;;
57615;SDS011;43816;52.054;-9.494;2023-03-18T01:04:17;2.73;;;2.53;;
57615;SDS011;43816;52.054;-9.494;2023-03-18T01:04:27;2.80;;;2.60;;
57615;SDS011;43816;52.054;-9.494;2023-03-18T01:04:38;2.83;;;2.63;;
57615;SDS011;43816;52.054;-9.494;2023-03-18T01:04:48;2.77;;;2.57;;
57615;SDS011;43816;52.054;-9.494;2023-03-18T01:04:58;2.67;;;2.47;;
57615;SDS011;43816;52.054;-9.494;2023-03-18T01:05:12;2.70;;;2.50;;
57615;SDS011;43816;52.054;-9.494;2023-03-18T01:05:22;2.65;;;2.45;;
57615;SDS011;43816;52.054;-9.494;2023-03-18T01:05:33;2.80;;;2.60;;
57615;SDS011;43816;52.054;-9.494;2023-03-18T01:05:44;2.70;;;2.50;;
57615;SDS011;43816;52.054;-9.494;2023-03-18T01:05:54;2.83;;;2.63;;
57615;SDS011;43816;52.054;-9.494;2023-03-18T01:06:04;2.70;;;2.50;;
57615;SDS011;43816;52.054;-9.494;2023-03-18T01:06:16;2.80;;;2.60;;